Decoded Metar for OIAG (AGHAJARI in IRAN) (IATA:N/A) | Meteo·Mobile Aviation Weather
aviador You're here:

OIAG Decoded Metar

AGHAJARI in IRAN
Report Time2018-11-20 05:00:00
UTC Time2018-11-20 05:28:07
Flight Rules ifr IFR
Wind330° at 10 kt
W.Decomp.*RWY 31: 9.6 kt HW 2.9 kt RCW
W.Rank330° ranks 2
Current wind is above 330° avg. (7.8)
Visibility2500 m
Phenomena:Mist
Clouds:Scattered 040 Hf
Expected CloudBase > 400 ft AGL from Temp-Dew spread
CeilingNone
Temp16°C (ISA +1)
Dew Point15°C (94% RH)
AAT14.0°C
QNH1019 hPa
Density Alt259 ft
Elevation95 ft
Report Wrong Elevation
Raw Report
METAR OIAG 200500Z 33010KT 2500 BR SCT040 16/15 Q1019=

Extra information for OIAG:More info

Metar Taf Metar & Taf Last 4 Metars F.Rules Stats Wind Profile Meteogram Temp Stats Airport Information Weather charts Add Link Nearby VenuesMetar ALERT Operation Metar Decoded Social comments